Record high temperature 37.7°C Record low temperature -23.5°C Record high gust 79.6 km/h Record high average 153.6 km/h Record daily rain 47.2 mm Record low windchill -31.0°C Record high barometer 1041.9 hPa Record low barometer 979.6 hPa
Daily high pressure 1030.3 hPa Daily low pressure 1025.9 hPa Daily low windchill 3.7°C Daily high heat index 24.3°C Daily high gust speed 22.2 kmh OSO Daily high average speed 9.6 kmh OSO
Wetterdaten
LETZTE AKTUALISIERUNG UM: 22:15 DATUM: April 07 2020, time of next update: 22:30
Aktuelles WetterClear/Night Aktuelle Temperatur 12.3°C (54.1°F), Apparent temp 11.8°C
Höchsttemperatur (seit Mitternacht)24.3°C um: 15:01 Tiefsttemperatur (seit Mitternacht)3.7°C um: 07:13
Windgeschwindigkeit (10 Minuten )0.0 kmh (0.0 kts) Windrichtung (Dir) (10 Minuten )E (90°)
Windchill Temperatur 12.3°C Windspitzen (letzte Std)0.0 kmh (0.0 kts) um: 22:00
Windspitzen (seit Mitternacht)22.2 kmh (12.0 kts) um: 13:02 Höchstes Windmittel / Minute (seit Mitternacht)9.6 kmh (5.2 kts) um: 13:06
Regenmenge (letzte Std)0.0 mm Regenmenge (seit Mitternacht)0.0 mm (0.00 in.)---
Regenmenge diesen Monat 0.0 mm (0.00 in.) Regenmenge seit Jahresbeginn 170.0 mm (6.69 in.)
Höchste Regenmenge pro Minute (letzte Std)0.0 mm/min Höchste Regenmenge pro Stunde (letzte 6 Std)0.0 mm/stunde
Regenmenge Gestern 0.0 mm Taupunkt 4.5°C (Wet Bulb :8.7°C )
Luftfeuchtigkeit 59 %, Humidex 11.4°C Aktueller Luftdruck (auf Meereshöhe bezogen)1026.9 hPa
Luftdrucktendenz +0.1 hPa (letzte Std) Trend (letzte 1 Std)gleichbleibend
Luftdrucktendenz (letzte 12 Std)-3.2 hPa Luftdrucktendenz (letzte 6 Std)+0.0 hPa
Maximum Soil temperature (seit Mitternacht) 10.0°C Minimum Soil temperature(seit Mitternacht)7.8°C
Current Soil temperature 10°C
Current Solar 0 W/m²
Maximum solar (seit Mitternacht) 786 W/m² Minimum solar(seit Mitternacht)0 W/m²
Current 11:04 hours of sunshine today, current sky: Nicht bestimmbar (Nachtzeit)/Dry/Clear
Sunshine hours for the year: 2086:27 hrs Sunshine hours for the month: 76:04 hrs
Current evapotranspiration rate 1.4 mm per day. Yesterday's reading 1.3

Diese Seite wurde mit aktuellen Daten einer DAVIS VP Wetterstation erstellt. Drücken Sie bitte auf "Aktualisieren" oder "neu laden" um die neuesten Daten zu erhalten.


Animated web cam image


Weather report/warning/Metars

Stuttgart-Echterdingen, Germany (EDDS) 48-41N 009-13E 391M
Apr 07, 2020 - 03:50 PM EDT / 2020.04.07 1950 UTC
Wind: from the NE (040 degrees) at 5 MPH (4 KT):0
Visibility: greater than 7 mile(s):0
Temperature: 57 F (14 C)
Dew Point: 37 F (3 C)
Relative Humidity: 47%
Pressure (altimeter): 30.33 in. Hg (1027 hPa)
ob: EDDS 071950Z 04004KT CAVOK 14/03 Q1027 NOSIG
cycle: 20
Augsburg, Germany (EDMA) 48-26N 010-56E 463M
Apr 07, 2020 - 03:50 PM EDT / 2020.04.07 1950 UTC
Wind: from the NE (040 degrees) at 3 MPH (3 KT):0
Visibility: greater than 7 mile(s):0
Temperature: 50 F (10 C)
Dew Point: 35 F (2 C)
Relative Humidity: 57%
Pressure (altimeter): 30.33 in. Hg (1027 hPa)
ob: EDMA 071950Z AUTO 04003KT 9999 // NCD 10/02 Q1027
cycle: 20
Nuernberg, Germany (EDDN) 49-30N 011-03E 318M
Apr 07, 2020 - 03:50 PM EDT / 2020.04.07 1950 UTC
Wind: from the NNE (030 degrees) at 8 MPH (7 KT):0
Visibility: greater than 7 mile(s):0
Temperature: 59 F (15 C)
Dew Point: 33 F (1 C)
Relative Humidity: 38%
Pressure (altimeter): 30.36 in. Hg (1028 hPa)
ob: EDDN 071950Z 03007KT CAVOK 15/01 Q1028 NOSIG
cycle: 20
Berlin-Tegel, Germany (EDDT) 52-34N 013-19E 37M
Apr 07, 2020 - 03:50 PM EDT / 2020.04.07 1950 UTC
Wind: from the NE (050 degrees) at 6 MPH (5 KT) (direction variable):0
Visibility: greater than 7 mile(s):0
Temperature: 57 F (14 C)
Dew Point: 32 F (0 C)
Relative Humidity: 38%
Pressure (altimeter): 30.47 in. Hg (1032 hPa)
ob: EDDT 071950Z 05005KT 360V090 CAVOK 14/M00 Q1032 NOSIG
cycle: 20
Friedrichshafen, Germany (EDNY) 47-40N 009-31E 424M
Apr 07, 2020 - 03:50 PM EDT / 2020.04.07 1950 UTC
Wind: from the NNE (030 degrees) at 8 MPH (7 KT):0
Visibility: greater than 7 mile(s):0
Temperature: 60 F (16 C)
Dew Point: 33 F (1 C)
Relative Humidity: 36%
Pressure (altimeter): 30.30 in. Hg (1026 hPa)
ob: EDNY 071950Z AUTO 03007KT 9999 // NCD 16/01 Q1026
cycle: 20
Hamburg-Finkenwerder, Germany (EDHI) 53-32N 009-50E 13M
Apr 07, 2020 - 03:50 PM EDT / 2020.04.07 1950 UTC
Wind: from the E (080 degrees) at 5 MPH (4 KT) (direction variable):0
Visibility: greater than 7 mile(s):0
Temperature: 50 F (10 C)
Dew Point: 39 F (4 C)
Relative Humidity: 66%
Pressure (altimeter): 30.47 in. Hg (1032 hPa)
ob: EDHI 071950Z AUTO 08004KT 040V110 9999 // NCD 10/04 Q1032
cycle: 20
Amsterdam Airport Schiphol, Netherlands (EHAM) 52-18N 004-46E -2M
Apr 07, 2020 - 03:55 PM EDT / 2020.04.07 1955 UTC
Wind: from the ENE (060 degrees) at 7 MPH (6 KT):0
Visibility: greater than 7 mile(s):0
Temperature: 51 F (11 C)
Dew Point: 42 F (6 C)
Relative Humidity: 71%
Pressure (altimeter): 30.39 in. Hg (1029 hPa)
ob: EHAM 071955Z 06006KT CAVOK 11/06 Q1029 NOSIG
cycle: 20
Stockholm/Skavsta, Sweden (ESKN) 58-47N 016-55E
Apr 07, 2020 - 03:50 PM EDT / 2020.04.07 1950 UTC
Wind: from the WSW (250 degrees) at 5 MPH (4 KT):0
Visibility: greater than 7 mile(s):0
Temperature: 39 F (4 C)
Dew Point: 32 F (0 C)
Relative Humidity: 75%
Pressure (altimeter): 30.36 in. Hg (1028 hPa)
ob: ESKN 071950Z 25004KT CAVOK 04/M00 Q1028
cycle: 20
Ramstein, Germany (ETAR) 49-26N 007-36E 237M
Apr 07, 2020 - 03:56 PM EDT / 2020.04.07 1956 UTC
Wind: Calm:0
Visibility: greater than 7 mile(s):0
Sky conditions: clear
Temperature: 50.4 F (10.2 C)
Dew Point: 39.7 F (4.3 C)
Relative Humidity: 66%
Pressure (altimeter): 30.33 in. Hg (1027 hPa)
ob: ETAR 071956Z AUTO 00000KT 9999 CLR 10/04 A3033 RMK AO2 SLP275 T01020043 FZRANO 
cycle: 20
Laupheim, Germany (ETHL) 48-13N 009-55E 550M
Apr 07, 2020 - 03:20 PM EDT / 2020.04.07 1920 UTC
Wind: from the ENE (060 degrees) at 6 MPH (5 KT):0
Visibility: greater than 7 mile(s):0
Temperature: 57 F (14 C)
Dew Point: 32 F (0 C)
Relative Humidity: 38%
Pressure (altimeter): 30.33 in. Hg (1027 hPa)
ob: ETHL 071920Z 06005KT 9999 14/00 Q1027 BLU+BLU+
cycle: 19
Gran Canaria - Canary Islands, Spain (GCLP) 27-56N 015-23W 47M
Apr 07, 2020 - 04:00 PM EDT / 2020.04.07 2000 UTC
Wind: from the N (010 degrees) at 20 MPH (17 KT):0
Visibility: greater than 7 mile(s):0
Sky conditions: mostly clear
Temperature: 69 F (21 C)
Dew Point: 60 F (16 C)
Relative Humidity: 73%
Pressure (altimeter): 30.09 in. Hg (1019 hPa)
ob: GCLP 072000Z 01017KT 9999 FEW030 21/16 Q1019 NOSIG
cycle: 20
Hurguada, Egypt (HEGN) 27-09N 033-43E 14M
Apr 07, 2020 - 03:00 PM EDT / 2020.04.07 1900 UTC
Wind: from the NW (310 degrees) at 7 MPH (6 KT):0
Visibility: greater than 7 mile(s):0
Temperature: 73 F (23 C)
Dew Point: 37 F (3 C)
Relative Humidity: 26%
Pressure (altimeter): 29.88 in. Hg (1012 hPa)
ob: HEGN 071900Z 31006KT CAVOK 23/03 Q1012 NOSIG
cycle: 19
Chicago / Meigs, IL, United States (KCGX) 41-52N 087-36W
Jun 18, 2008 - 01:45 PM EDT / 2008.06.18 1745 UTC
Wind: from the NW (310 degrees) at 6 MPH (5 KT):0
Visibility: 15 mile(s):0
Sky conditions: overcast
Temperature: 57 F (14 C)
Dew Point: 51 F (11 C)
Relative Humidity: 82%
Pressure (altimeter): 29.89 in. Hg (1012 hPa)
ob: KCGX 181745Z 31005KT 15SM BKN014 OVC030 14/11 A2989
cycle: 18
Paris-Aeroport Charles De Gaulle, France (LFPG) 49-01N 002-32E 109M
Apr 07, 2020 - 04:00 PM EDT / 2020.04.07 2000 UTC
Wind: from the ENE (070 degrees) at 10 MPH (9 KT):0
Visibility: greater than 7 mile(s):0
Temperature: 60 F (16 C)
Dew Point: 41 F (5 C)
Relative Humidity: 47%
Pressure (altimeter): 30.27 in. Hg (1025 hPa)
ob: LFPG 072000Z AUTO 07009KT CAVOK 16/05 Q1025 NOSIG
cycle: 20
Hyeres, France (LFTH) 43-06N 006-09E 4M
Apr 07, 2020 - 04:00 PM EDT / 2020.04.07 2000 UTC
Wind: from the N (360 degrees) at 2 MPH (2 KT):0
Visibility: greater than 7 mile(s):0
Temperature: 53 F (12 C)
Dew Point: 39 F (4 C)
Relative Humidity: 57%
Pressure (altimeter): 30.33 in. Hg (1027 hPa)
ob: LFTH 072000Z AUTO 36002KT CAVOK 12/04 Q1027 NOSIG
cycle: 20



Die Wetterdaten werden alle 2 Minuten gespeichert, aber die Datenübertragung findet jede Minute statt. Die beste Ansicht wird in einer Auflösung von 800 x 600 und "True colour" erzielt. Linie zeigt die relative Luftfeuchtigkeit an.

Drücken Sie bitte auf "Aktualisieren" in Ihrem Browser, um die aktuellsten Daten zu erhalten.

Klicken Sie hier, um eine Übersicht der Durchschnitts- u. Extremwerte für den Monat zu erhalten
Created by "Weather Display" software version 10.37S at this start time/date 11:11:39 05.04.2020